createdAt,value
2022-08-18T00:01:17.179Z,9.57
2022-08-18T00:03:56.706Z,11.73
2022-08-18T00:06:32.900Z,10.35
2022-08-18T00:09:03.120Z,10.60
2022-08-18T00:11:40.934Z,9.90
2022-08-18T00:14:21.751Z,9.88
2022-08-18T00:16:52.284Z,9.80
2022-08-18T00:19:20.725Z,9.77
2022-08-18T00:22:15.021Z,9.18
2022-08-18T00:24:48.468Z,9.93
2022-08-18T00:27:22.998Z,9.00
2022-08-18T00:29:53.163Z,10.52
2022-08-18T00:32:23.524Z,9.30
2022-08-18T00:34:51.790Z,9.77
2022-08-18T00:37:21.903Z,9.45
2022-08-18T00:39:52.520Z,11.65
2022-08-18T00:42:27.711Z,8.63
2022-08-18T00:45:02.526Z,8.77
2022-08-18T00:47:41.799Z,9.50
2022-08-18T00:50:16.018Z,8.13
2022-08-18T00:52:53.938Z,8.23
2022-08-18T00:55:23.665Z,8.05
2022-08-18T00:57:56.246Z,8.02
2022-08-18T01:00:24.724Z,7.00
2022-08-18T01:02:58.150Z,7.18
2022-08-18T01:05:33.951Z,7.60
2022-08-18T01:08:04.530Z,7.60
2022-08-18T01:10:35.081Z,7.65
2022-08-18T01:13:03.570Z,8.30
2022-08-18T01:15:32.074Z,8.07
2022-08-18T01:18:19.852Z,7.95
2022-08-18T01:21:15.604Z,8.52
2022-08-18T01:23:46.797Z,8.27
2022-08-18T01:26:22.748Z,8.15
2022-08-18T01:28:52.484Z,8.73
2022-08-18T01:31:38.362Z,7.45
2022-08-18T01:34:08.429Z,7.47
2022-08-18T01:36:40.698Z,8.23
2022-08-18T01:41:17.241Z,7.57
2022-08-18T01:42:19.148Z,7.68
2022-08-18T01:44:48.962Z,7.97
2022-08-18T01:47:18.675Z,8.45
2022-08-18T01:49:46.874Z,8.20
2022-08-18T01:52:21.122Z,8.32
2022-08-18T01:54:51.759Z,9.25
2022-08-18T01:57:22.016Z,7.95
2022-08-18T01:59:50.665Z,8.43
2022-08-18T02:02:29.022Z,9.30
2022-08-18T02:05:02.663Z,9.15
2022-08-18T02:07:34.270Z,7.88
2022-08-18T02:10:08.029Z,9.20
2022-08-18T02:12:41.444Z,10.85
2022-08-18T02:15:11.019Z,9.23
2022-08-18T02:17:39.913Z,9.13
2022-08-18T02:20:09.770Z,9.73
2022-08-18T02:22:38.401Z,9.70
2022-08-18T02:25:09.516Z,10.85
2022-08-18T02:27:37.952Z,9.57
2022-08-18T02:30:09.013Z,9.73
2022-08-18T02:32:37.390Z,9.35
2022-08-18T02:35:08.278Z,11.40
2022-08-18T02:37:42.253Z,11.55
2022-08-18T02:40:15.135Z,10.25
2022-08-18T02:42:44.900Z,10.70
2022-08-18T02:45:13.694Z,10.40
2022-08-18T02:47:43.013Z,9.88
2022-08-18T02:50:13.725Z,11.80
2022-08-18T02:52:41.852Z,10.50
2022-08-18T02:55:12.455Z,11.57
2022-08-18T02:57:43.514Z,11.23
2022-08-18T03:00:15.212Z,9.77
2022-08-18T03:02:47.449Z,9.75
2022-08-18T03:05:16.588Z,10.07
2022-08-18T03:07:45.491Z,11.15
2022-08-18T03:10:33.306Z,10.73
2022-08-18T03:13:03.228Z,10.63
2022-08-18T03:15:31.576Z,10.68
2022-08-18T03:17:59.948Z,9.65
2022-08-18T03:20:31.035Z,9.90
2022-08-18T03:23:04.719Z,9.73
2022-08-18T03:25:45.194Z,9.48
2022-08-18T03:28:13.560Z,9.25
2022-08-18T03:30:42.080Z,11.00
2022-08-18T03:33:10.636Z,10.30
2022-08-18T03:35:39.003Z,11.20
2022-08-18T03:38:07.190Z,8.07
2022-08-18T03:40:35.870Z,10.00
2022-08-18T03:43:25.866Z,9.93
2022-08-18T03:45:55.726Z,10.30
2022-08-18T03:48:25.319Z,9.65
2022-08-18T03:50:53.545Z,10.40
2022-08-18T03:53:21.794Z,8.43
2022-08-18T03:55:49.963Z,8.88
2022-08-18T03:58:19.563Z,9.18
2022-08-18T04:00:47.707Z,8.25
2022-08-18T04:03:15.942Z,8.07
2022-08-18T04:05:44.332Z,9.52
2022-08-18T04:08:13.539Z,9.10
2022-08-18T04:10:44.755Z,7.50
2022-08-18T04:13:14.192Z,8.45
2022-08-18T04:15:43.787Z,9.02
2022-08-18T04:18:12.188Z,7.70
2022-08-18T04:20:59.944Z,9.98
2022-08-18T04:23:28.382Z,7.88
2022-08-18T04:26:01.188Z,9.70
2022-08-18T04:28:30.146Z,9.73
2022-08-18T04:31:00.242Z,9.23
2022-08-18T04:33:28.661Z,8.98
2022-08-18T04:35:56.919Z,8.93
2022-08-18T04:38:25.363Z,8.10
2022-08-18T04:40:53.686Z,9.27
2022-08-18T04:43:21.964Z,8.50
2022-08-18T04:45:51.045Z,8.50
2022-08-18T04:48:20.872Z,7.60
2022-08-18T04:50:50.941Z,8.88
2022-08-18T04:53:36.427Z,8.90
2022-08-18T04:56:05.225Z,10.27
2022-08-18T04:58:33.332Z,10.52
2022-08-18T05:01:02.705Z,11.55
2022-08-18T05:03:32.447Z,10.90
2022-08-18T05:06:00.574Z,9.90
2022-08-18T05:08:28.719Z,10.70
2022-08-18T05:11:03.934Z,10.98
2022-08-18T05:13:32.596Z,11.45
2022-08-18T05:16:18.075Z,11.45
2022-08-18T05:18:54.795Z,10.80
2022-08-18T05:21:25.196Z,10.77
2022-08-18T05:23:53.961Z,10.05
2022-08-18T05:26:22.038Z,10.95
2022-08-18T05:29:00.189Z,11.10
2022-08-18T05:31:33.128Z,10.68
2022-08-18T05:34:04.151Z,12.82
2022-08-18T05:36:54.070Z,10.80
2022-08-18T05:39:25.675Z,11.05
2022-08-18T05:41:56.482Z,10.82
2022-08-18T05:44:28.333Z,10.68
2022-08-18T05:47:00.638Z,10.93
2022-08-18T05:49:30.382Z,11.98
2022-08-18T05:52:02.653Z,9.88
2022-08-18T05:54:57.304Z,9.18
2022-08-18T05:57:29.156Z,10.95
2022-08-18T05:59:59.193Z,9.25
2022-08-18T06:02:33.706Z,9.38
2022-08-18T06:05:08.737Z,9.50
2022-08-18T06:07:42.481Z,8.40
2022-08-18T06:10:12.971Z,8.15
2022-08-18T06:12:47.058Z,7.22
2022-08-18T06:15:18.543Z,7.35
2022-08-18T06:18:02.411Z,9.75
2022-08-18T06:20:42.498Z,7.65
2022-08-18T06:23:25.295Z,6.88
2022-08-18T06:26:04.873Z,8.30
2022-08-18T06:28:44.572Z,7.30
2022-08-18T06:31:20.424Z,7.10
2022-08-18T06:33:58.667Z,7.50
2022-08-18T06:36:38.880Z,7.80
2022-08-18T06:39:15.616Z,7.57
2022-08-18T06:41:46.262Z,8.38
2022-08-18T06:44:24.598Z,7.40
2022-08-18T06:47:04.289Z,7.20
2022-08-18T06:49:41.051Z,7.67
2022-08-18T06:52:27.017Z,8.27
2022-08-18T06:54:56.904Z,8.57
2022-08-18T06:57:29.671Z,7.78
2022-08-18T07:00:06.947Z,7.88
2022-08-18T07:02:44.524Z,8.95
2022-08-18T07:05:22.711Z,9.45
2022-08-18T07:08:13.037Z,10.00
2022-08-18T07:10:44.576Z,10.30
2022-08-18T07:13:19.446Z,8.88
2022-08-18T07:15:48.496Z,9.55
2022-08-18T07:18:25.365Z,9.07
2022-08-18T07:20:56.822Z,9.90
2022-08-18T07:23:30.021Z,10.30
2022-08-18T07:26:09.765Z,11.73
2022-08-18T07:28:41.860Z,9.82
2022-08-18T07:31:17.191Z,9.70
2022-08-18T07:33:52.621Z,10.68
2022-08-18T07:36:23.137Z,9.35
2022-08-18T07:38:58.232Z,10.25
2022-08-18T07:41:30.309Z,10.57
2022-08-18T07:44:12.954Z,10.90
2022-08-18T07:46:46.682Z,10.15
2022-08-18T07:49:22.422Z,10.88
2022-08-18T07:51:57.981Z,9.85
2022-08-18T07:54:51.468Z,11.18
2022-08-18T07:57:42.026Z,10.13
2022-08-18T08:00:35.469Z,12.88
2022-08-18T08:03:32.126Z,12.75
2022-08-18T08:06:07.058Z,12.50
2022-08-18T08:08:43.313Z,10.35
2022-08-18T08:11:27.909Z,11.20
2022-08-18T08:14:11.817Z,10.43
2022-08-18T08:16:47.263Z,9.73
2022-08-18T08:19:59.557Z,9.90
2022-08-18T08:22:31.795Z,11.57
2022-08-18T08:25:17.693Z,11.02
2022-08-18T08:28:11.242Z,11.55
2022-08-18T08:30:46.362Z,10.50
2022-08-18T08:33:25.809Z,11.30
2022-08-18T08:36:00.433Z,10.88
2022-08-18T08:38:42.847Z,11.57
2022-08-18T08:41:20.081Z,11.43
2022-08-18T08:44:03.900Z,12.60
2022-08-18T08:46:42.771Z,12.18
2022-08-18T08:49:18.263Z,16.98
2022-08-18T08:51:56.785Z,12.65
2022-08-18T08:54:30.894Z,12.38
2022-08-18T08:57:02.621Z,11.93
2022-08-18T08:59:32.511Z,13.13
2022-08-18T09:02:46.815Z,13.63
2022-08-18T09:05:16.184Z,13.15
2022-08-18T09:08:10.899Z,12.00
2022-08-18T09:11:08.326Z,13.25
2022-08-18T09:14:01.776Z,15.83
2022-08-18T09:17:00.402Z,15.55
2022-08-18T09:19:50.301Z,13.23
2022-08-18T09:22:29.932Z,14.60
2022-08-18T09:24:59.500Z,12.90
2022-08-18T09:28:07.154Z,13.73
2022-08-18T09:30:49.260Z,13.10
2022-08-18T09:33:35.518Z,14.63
2022-08-18T09:36:42.523Z,12.93
2022-08-18T09:39:41.910Z,13.80
2022-08-18T09:42:15.918Z,13.83
2022-08-18T09:45:07.676Z,15.40
2022-08-18T09:47:58.962Z,15.93
2022-08-18T09:50:54.189Z,15.53
2022-08-18T09:53:56.718Z,16.30
2022-08-18T09:57:19.649Z,13.37
2022-08-18T09:59:55.207Z,19.47
2022-08-18T10:03:13.773Z,14.30
2022-08-18T10:06:00.002Z,14.67
2022-08-18T10:08:50.733Z,13.50
2022-08-18T10:11:31.379Z,13.47
2022-08-18T10:14:24.605Z,12.00
2022-08-18T10:17:21.765Z,12.30
2022-08-18T10:20:01.259Z,12.33
2022-08-18T10:22:41.724Z,15.07
2022-08-18T10:25:22.486Z,13.53
2022-08-18T10:27:56.645Z,14.10
2022-08-18T10:31:06.139Z,16.40
2022-08-18T10:34:17.094Z,15.10
2022-08-18T10:36:51.470Z,14.00
2022-08-18T10:39:27.085Z,15.10
2022-08-18T10:42:05.382Z,13.77
2022-08-18T10:44:42.151Z,14.13
2022-08-18T10:47:21.108Z,15.57
2022-08-18T10:49:54.528Z,13.80
2022-08-18T10:53:23.880Z,13.60
2022-08-18T10:55:51.426Z,15.80
2022-08-18T10:58:36.884Z,14.60
2022-08-18T11:01:14.508Z,16.10
2022-08-18T11:04:14.164Z,16.50
2022-08-18T11:06:48.805Z,14.67
2022-08-18T11:09:26.562Z,14.90
2022-08-18T11:12:01.763Z,17.00
2022-08-18T11:14:56.287Z,17.23
2022-08-18T11:17:40.477Z,13.43
2022-08-18T11:20:15.591Z,16.43
2022-08-18T11:22:53.782Z,13.43
2022-08-18T11:25:29.603Z,16.10
2022-08-18T11:28:01.125Z,16.60
2022-08-18T11:30:37.102Z,14.60
2022-08-18T11:33:07.157Z,13.00
2022-08-18T11:35:48.675Z,13.83
2022-08-18T11:41:17.595Z,15.50
2022-08-18T11:43:50.649Z,14.17
2022-08-18T11:46:30.538Z,13.83
2022-08-18T11:49:01.545Z,13.70
2022-08-18T11:51:33.501Z,12.27
2022-08-18T11:54:05.341Z,13.13
2022-08-18T12:00:00.223Z,14.07
2022-08-18T12:02:29.568Z,13.13
2022-08-18T12:05:08.590Z,12.50
2022-08-18T12:07:45.417Z,13.63
2022-08-18T12:10:29.724Z,13.90
2022-08-18T12:13:01.126Z,14.17
2022-08-18T12:15:44.382Z,13.77
2022-08-18T12:18:26.362Z,15.77
2022-08-18T12:20:58.933Z,14.03
2022-08-18T12:23:28.093Z,14.03
2022-08-18T12:26:26.887Z,12.63
2022-08-18T12:29:01.159Z,13.53
2022-08-18T12:31:42.735Z,11.47
2022-08-18T12:34:24.913Z,12.50
2022-08-18T12:36:58.085Z,12.53
2022-08-18T12:39:26.806Z,13.03
2022-08-18T12:41:55.278Z,11.83
2022-08-18T12:44:24.287Z,12.60
2022-08-18T12:46:57.804Z,13.13
2022-08-18T12:49:28.258Z,11.03
2022-08-18T12:51:58.696Z,11.80
2022-08-18T12:54:33.774Z,10.70
2022-08-18T12:57:04.609Z,10.23
2022-08-18T12:59:37.678Z,10.50
2022-08-18T13:02:08.254Z,11.23
2022-08-18T13:04:37.544Z,11.63
2022-08-18T13:07:07.964Z,13.40
2022-08-18T13:09:53.296Z,10.30
2022-08-18T13:12:24.084Z,9.50
2022-08-18T13:14:55.180Z,10.37
2022-08-18T13:17:30.021Z,11.23
2022-08-18T13:20:04.731Z,10.60
2022-08-18T13:22:33.571Z,11.20
2022-08-18T13:25:32.118Z,9.13
2022-08-18T13:28:02.062Z,10.37
2022-08-18T13:30:32.321Z,9.93
2022-08-18T13:33:06.088Z,9.63
2022-08-18T13:35:54.749Z,10.37
2022-08-18T13:38:25.854Z,10.90
2022-08-18T13:40:59.279Z,11.33
2022-08-18T13:43:32.447Z,10.30
2022-08-18T13:46:04.808Z,9.90
2022-08-18T13:48:35.438Z,11.40
2022-08-18T13:51:05.346Z,10.50
2022-08-18T13:53:50.411Z,10.30
2022-08-18T13:56:31.253Z,9.40
2022-08-18T13:59:00.189Z,9.60
2022-08-18T14:01:52.236Z,11.23
2022-08-18T14:04:20.411Z,10.83
2022-08-18T14:06:50.940Z,9.27
2022-08-18T14:09:27.561Z,11.03
2022-08-18T14:12:06.052Z,9.20
2022-08-18T14:14:34.873Z,10.10
2022-08-18T14:17:04.512Z,10.63
2022-08-18T14:19:54.139Z,9.97
2022-08-18T14:22:41.980Z,9.93
2022-08-18T14:25:28.427Z,9.40
2022-08-18T14:27:57.215Z,9.70
2022-08-18T14:30:26.329Z,9.40
2022-08-18T14:32:54.726Z,10.70
2022-08-18T14:36:04.480Z,11.23
2022-08-18T14:38:16.482Z,11.30
2022-08-18T14:40:47.448Z,9.77
2022-08-18T14:43:17.196Z,10.37
2022-08-18T14:45:48.910Z,11.13
2022-08-18T14:48:20.626Z,10.80
2022-08-18T14:50:55.344Z,10.70
2022-08-18T14:53:28.774Z,11.63
2022-08-18T14:55:59.249Z,11.20
2022-08-18T14:58:29.621Z,10.47
2022-08-18T15:01:00.231Z,9.90
2022-08-18T15:03:31.938Z,10.50
2022-08-18T15:06:04.638Z,11.40
2022-08-18T15:08:35.334Z,11.67
2022-08-18T15:11:11.429Z,11.07
2022-08-18T15:13:42.272Z,11.23
2022-08-18T15:16:13.490Z,11.00
2022-08-18T15:18:42.108Z,11.27
2022-08-18T15:21:35.761Z,12.37
2022-08-18T15:24:26.464Z,9.33
2022-08-18T15:26:57.727Z,11.70
2022-08-18T15:29:29.467Z,10.80
2022-08-18T15:32:02.039Z,11.30
2022-08-18T15:34:46.052Z,12.57
2022-08-18T15:37:19.470Z,12.17
2022-08-18T15:39:51.883Z,10.73
2022-08-18T15:42:25.200Z,11.47
2022-08-18T15:44:54.177Z,10.80
2022-08-18T15:47:25.033Z,11.50
2022-08-18T15:49:54.715Z,11.17
2022-08-18T15:52:26.252Z,12.37
2022-08-18T15:54:57.038Z,11.50
2022-08-18T15:57:39.602Z,12.30
2022-08-18T16:00:12.093Z,14.07
2022-08-18T16:02:48.334Z,13.07
2022-08-18T16:05:18.310Z,14.93
2022-08-18T16:07:47.868Z,12.27
2022-08-18T16:10:18.962Z,10.80
2022-08-18T16:12:51.157Z,11.73
2022-08-18T16:15:21.866Z,12.90
2022-08-18T16:17:51.706Z,11.03
2022-08-18T16:20:21.269Z,13.63
2022-08-18T16:22:51.654Z,13.97
2022-08-18T16:25:20.903Z,15.30
2022-08-18T16:27:50.065Z,13.97
2022-08-18T16:30:31.656Z,13.93
2022-08-18T16:33:16.313Z,15.00
2022-08-18T16:35:52.272Z,13.63
2022-08-18T16:38:24.549Z,13.63
2022-08-18T16:40:58.072Z,12.67
2022-08-18T16:43:30.517Z,13.10
2022-08-18T16:46:03.115Z,14.00
2022-08-18T16:48:34.848Z,16.40
2022-08-18T16:51:08.691Z,15.50
2022-08-18T16:53:51.885Z,17.37
2022-08-18T16:56:36.028Z,15.23
2022-08-18T16:59:19.718Z,15.40
2022-08-18T17:02:07.752Z,17.97
2022-08-18T17:04:37.215Z,17.30
2022-08-18T17:07:09.485Z,19.40
2022-08-18T17:10:00.321Z,19.93
2022-08-18T17:12:33.302Z,21.47
2022-08-18T17:15:07.724Z,21.57
2022-08-18T17:17:40.313Z,21.00
2022-08-18T17:20:19.238Z,20.17
2022-08-18T17:22:54.066Z,21.83
2022-08-18T17:25:30.261Z,22.13
2022-08-18T17:28:46.124Z,25.57
2022-08-18T17:31:50.131Z,24.57
2022-08-18T17:34:39.610Z,25.10
2022-08-18T17:37:26.423Z,27.90
2022-08-18T17:40:33.147Z,30.37
2022-08-18T17:44:07.633Z,28.73
2022-08-18T17:47:14.912Z,34.30
2022-08-18T17:50:26.698Z,29.97
2022-08-18T17:53:06.871Z,31.30
2022-08-18T17:55:45.831Z,29.27
2022-08-18T17:58:22.382Z,30.67
2022-08-18T18:00:54.233Z,30.33
2022-08-18T18:03:35.525Z,29.97
2022-08-18T18:06:27.048Z,29.57
2022-08-18T18:09:04.841Z,25.60
2022-08-18T18:11:51.860Z,27.53
2022-08-18T18:14:39.626Z,28.20
2022-08-18T18:17:25.990Z,31.10
2022-08-18T18:20:15.873Z,23.97
2022-08-18T18:22:59.107Z,22.47
2022-08-18T18:25:38.645Z,23.93
2022-08-18T18:28:35.698Z,23.50
2022-08-18T18:31:29.267Z,22.00
2022-08-18T18:34:07.915Z,20.87
2022-08-18T18:37:14.846Z,21.13
2022-08-18T18:40:02.143Z,22.03
2022-08-18T18:42:47.373Z,21.50
2022-08-18T18:45:33.548Z,18.17
2022-08-18T18:48:45.019Z,18.80
2022-08-18T18:51:33.936Z,20.20
2022-08-18T18:54:33.152Z,18.60
2022-08-18T18:57:10.889Z,19.77
2022-08-18T19:00:03.163Z,16.67
2022-08-18T19:02:44.759Z,18.60
2022-08-18T19:05:24.600Z,17.97
2022-08-18T19:08:07.722Z,16.20
2022-08-18T19:10:48.093Z,18.03
2022-08-18T19:13:33.132Z,17.23
2022-08-18T19:16:24.323Z,18.57
2022-08-18T19:19:36.890Z,17.00
2022-08-18T19:22:07.514Z,17.43
2022-08-18T19:24:46.647Z,17.47
2022-08-18T19:27:45.513Z,16.00
2022-08-18T19:30:31.210Z,16.10
2022-08-18T19:33:04.622Z,16.13
2022-08-18T19:35:41.703Z,17.53
2022-08-18T19:38:33.206Z,16.23
2022-08-18T19:41:37.220Z,17.87
2022-08-18T19:44:25.586Z,17.80
2022-08-18T19:46:58.644Z,17.50
2022-08-18T19:49:35.160Z,16.90
2022-08-18T19:52:46.517Z,16.43
2022-08-18T19:55:18.325Z,18.93
2022-08-18T19:58:14.341Z,17.87
2022-08-18T20:00:52.767Z,18.27
2022-08-18T20:03:54.450Z,18.07
2022-08-18T20:06:50.932Z,16.00
2022-08-18T20:09:37.018Z,20.77
2022-08-18T20:12:28.562Z,19.70
2022-08-18T20:15:08.724Z,18.23
2022-08-18T20:18:02.533Z,21.50
2022-08-18T20:20:32.312Z,20.63
2022-08-18T20:23:01.840Z,22.67
2022-08-18T20:25:40.627Z,21.60
2022-08-18T20:28:23.711Z,21.07
2022-08-18T20:31:06.679Z,21.50
2022-08-18T20:33:38.259Z,22.33
2022-08-18T20:36:15.076Z,21.77
2022-08-18T20:38:45.611Z,22.07
2022-08-18T20:41:39.302Z,23.50
2022-08-18T20:44:44.173Z,23.27
2022-08-18T20:47:27.666Z,24.43
2022-08-18T20:50:22.768Z,25.03
2022-08-18T20:53:01.524Z,22.60
2022-08-18T20:55:38.955Z,23.37
2022-08-18T20:58:11.178Z,22.13
2022-08-18T21:00:43.253Z,21.15
2022-08-18T21:03:15.935Z,19.77
2022-08-18T21:05:46.403Z,20.83
2022-08-18T21:08:26.889Z,22.87
2022-08-18T21:10:57.907Z,21.43
2022-08-18T21:13:38.504Z,20.43
2022-08-18T21:16:07.343Z,21.90
2022-08-18T21:18:37.909Z,23.63
2022-08-18T21:21:27.006Z,21.87
2022-08-18T21:23:58.141Z,21.13
2022-08-18T21:26:29.155Z,20.30
2022-08-18T21:29:03.400Z,21.27
2022-08-18T21:31:43.891Z,20.63
2022-08-18T21:34:19.130Z,21.15
2022-08-18T21:36:53.737Z,22.23
2022-08-18T21:39:23.208Z,21.73
2022-08-18T21:41:54.417Z,19.80
2022-08-18T21:44:25.377Z,21.47
2022-08-18T21:47:05.762Z,19.40
2022-08-18T21:49:35.367Z,21.17
2022-08-18T21:52:04.696Z,23.53
2022-08-18T21:54:34.848Z,21.83
2022-08-18T21:57:20.811Z,20.87
2022-08-18T22:00:17.454Z,22.60
2022-08-18T22:02:47.171Z,20.33
2022-08-18T22:05:28.059Z,20.50
2022-08-18T22:07:56.858Z,21.58
2022-08-18T22:10:45.921Z,22.90
2022-08-18T22:13:41.573Z,21.90
2022-08-18T22:16:28.843Z,21.83
2022-08-18T22:19:09.177Z,22.90
2022-08-18T22:21:43.455Z,19.95
2022-08-18T22:24:21.525Z,22.98
2022-08-18T22:26:52.490Z,19.98
2022-08-18T22:29:32.575Z,20.42
2022-08-18T22:32:03.467Z,21.80
2022-08-18T22:34:34.463Z,20.10
2022-08-18T22:37:09.858Z,19.00
2022-08-18T22:39:42.121Z,19.20
2022-08-18T22:42:10.937Z,21.50
2022-08-18T22:44:39.610Z,20.27
2022-08-18T22:47:08.404Z,20.52
2022-08-18T22:49:37.202Z,21.80
2022-08-18T22:52:10.542Z,20.20
2022-08-18T22:54:39.194Z,18.70
2022-08-18T22:57:10.038Z,23.30
2022-08-18T22:59:42.160Z,21.17
2022-08-18T23:02:11.353Z,21.13
2022-08-18T23:04:39.729Z,21.60
2022-08-18T23:07:09.344Z,23.17
2022-08-18T23:09:40.331Z,21.03
2022-08-18T23:12:13.997Z,20.42
2022-08-18T23:14:46.221Z,19.73
2022-08-18T23:17:15.029Z,19.90
2022-08-18T23:19:43.559Z,18.93
2022-08-18T23:22:13.281Z,19.48
2022-08-18T23:24:41.945Z,19.65
2022-08-18T23:27:10.490Z,20.23
2022-08-18T23:29:41.175Z,23.07
2022-08-18T23:32:09.364Z,17.70
2022-08-18T23:34:37.923Z,23.70
2022-08-18T23:37:09.587Z,19.73
2022-08-18T23:39:40.275Z,21.92
2022-08-18T23:42:13.190Z,22.50
2022-08-18T23:44:42.425Z,18.87
2022-08-18T23:47:10.801Z,25.43
2022-08-18T23:49:39.066Z,21.27
2022-08-18T23:52:09.573Z,21.63
2022-08-18T23:54:39.141Z,18.00
2022-08-18T23:57:07.353Z,20.75
2022-08-18T23:59:35.452Z,24.30
